Time,TemperatureF,DewpointF,PressureIn,WindDirection,WindDirectionDegrees,WindSpeedMPH,WindSpeedGustMPH,Humidity,HourlyPrecipIn,Conditions,Clouds,dailyrainin,SoftwareType,DateUTC
2013-05-31 00:00:00,71.7,70.2,30.18,SE,134,0.0,0.0,95,0.00,RA,,0.00,WeatherDisplay:10.37,2013-05-31 04:00:00,
2013-05-31 00:15:00,71.2,69.7,30.18,SE,134,0.0,0.0,95,0.00,CLR,,0.00,WeatherDisplay:10.37,2013-05-31 04:15:00,
2013-05-31 00:30:00,70.7,69.2,30.17,SE,134,0.0,0.0,95,0.00,CLR,,0.00,WeatherDisplay:10.37,2013-05-31 04:30:00,
2013-05-31 00:45:00,70.8,69.9,30.16,SE,134,0.0,1.0,97,0.00,CLR,,0.00,WeatherDisplay:10.37,2013-05-31 04:45:00,
2013-05-31 01:00:00,71.0,70.1,30.16,SE,134,0.0,1.0,97,0.00,CLR,,0.00,WeatherDisplay:10.37,2013-05-31 05:00:00,
2013-05-31 01:15:00,71.0,70.1,30.16,SE,134,0.0,1.0,97,0.00,CLR,,0.00,WeatherDisplay:10.37,2013-05-31 05:15:00,
2013-05-31 01:30:00,71.1,70.2,30.16,SE,134,0.0,2.0,97,0.00,CLR,,0.00,WeatherDisplay:10.37,2013-05-31 05:30:00,
2013-05-31 01:45:00,70.8,69.6,30.15,SE,134,0.0,0.0,96,0.00,CLR,,0.00,WeatherDisplay:10.37,2013-05-31 05:45:00,
2013-05-31 02:00:00,70.7,69.5,30.15,SE,134,0.0,0.0,96,0.00,CLR,,0.00,WeatherDisplay:10.37,2013-05-31 06:00:00,
2013-05-31 02:15:00,70.4,69.2,30.14,SE,134,0.0,0.0,96,0.00,CLR,,0.00,WeatherDisplay:10.37,2013-05-31 06:15:00,
2013-05-31 02:30:00,70.0,68.9,30.14,SE,134,0.0,0.0,96,0.00,CLR,,0.00,WeatherDisplay:10.37,2013-05-31 06:30:00,
2013-05-31 02:45:00,69.4,68.2,30.14,SE,134,0.0,0.0,96,0.00,CLR,,0.00,WeatherDisplay:10.37,2013-05-31 06:45:00,
2013-05-31 03:00:00,68.6,67.4,30.13,SE,134,0.0,0.0,96,0.00,CLR,,0.00,WeatherDisplay:10.37,2013-05-31 07:00:00,
2013-05-31 03:15:00,68.3,67.1,30.13,SE,134,0.0,0.0,96,0.00,CLR,,0.00,WeatherDisplay:10.37,2013-05-31 07:15:00,
2013-05-31 03:30:00,67.9,66.7,30.13,SE,134,0.0,0.0,96,0.00,CLR,,0.00,WeatherDisplay:10.37,2013-05-31 07:30:00,
2013-05-31 03:45:00,67.5,66.7,30.13,SE,134,0.0,0.0,97,0.00,CLR,,0.00,WeatherDisplay:10.37,2013-05-31 07:45:00,
2013-05-31 04:00:00,67.4,66.5,30.12,SE,134,0.0,0.0,97,0.00,CLR,,0.00,WeatherDisplay:10.37,2013-05-31 08:00:00,
2013-05-31 04:15:00,67.6,66.7,30.12,SE,134,0.0,0.0,97,0.00,CLR,,0.00,WeatherDisplay:10.37,2013-05-31 08:15:00,
2013-05-31 04:30:00,67.0,66.1,30.12,SE,134,0.0,0.0,97,0.00,CLR,,0.00,WeatherDisplay:10.37,2013-05-31 08:30:00,
2013-05-31 04:45:00,66.6,65.7,30.13,SE,134,0.0,0.0,97,0.00,CLR,,0.00,WeatherDisplay:10.37,2013-05-31 08:45:00,
2013-05-31 05:00:00,66.3,65.5,30.13,SE,134,0.0,0.0,97,0.00,CLR,,0.00,WeatherDisplay:10.37,2013-05-31 09:00:00,
2013-05-31 05:15:00,66.0,65.1,30.12,SE,134,0.0,0.0,97,0.00,CLR,,0.00,WeatherDisplay:10.37,2013-05-31 09:15:00,
2013-05-31 05:30:00,65.8,64.9,30.13,SE,134,0.0,0.0,97,0.00,CLR,,0.00,WeatherDisplay:10.37,2013-05-31 09:30:00,
2013-05-31 05:45:00,65.7,64.8,30.13,SE,134,0.0,0.0,97,0.00,CLR,,0.00,WeatherDisplay:10.37,2013-05-31 09:45:00,
2013-05-31 06:00:00,65.7,64.9,30.14,SE,134,0.0,0.0,97,0.00,CLR,,0.00,WeatherDisplay:10.37,2013-05-31 10:00:00,
2013-05-31 06:15:00,66.0,65.4,30.13,SE,134,0.0,0.0,98,0.00,CLR,,0.00,WeatherDisplay:10.37,2013-05-31 10:15:00,
2013-05-31 06:30:00,66.0,65.4,30.13,SE,134,0.0,0.0,98,0.00,CLR,,0.00,WeatherDisplay:10.37,2013-05-31 10:30:00,
2013-05-31 06:45:00,65.6,64.7,30.14,SE,134,0.0,0.0,97,0.00,CLR,,0.00,WeatherDisplay:10.37,2013-05-31 10:45:00,
2013-05-31 07:00:00,65.5,64.9,30.14,SE,134,0.0,0.0,98,0.00,CLR,,0.00,WeatherDisplay:10.37,2013-05-31 11:00:00,
2013-05-31 07:15:00,66.3,65.7,30.14,SE,134,0.0,0.0,98,0.00,CLR,,0.00,WeatherDisplay:10.37,2013-05-31 11:15:00,
2013-05-31 07:30:00,67.9,67.3,30.14,SE,134,0.0,0.0,98,0.00,CLR,,0.00,WeatherDisplay:10.37,2013-05-31 11:30:00,
2013-05-31 07:45:00,70.3,70.0,30.14,SE,134,0.0,0.0,99,0.00,CLR,,0.00,WeatherDisplay:10.37,2013-05-31 11:45:00,
2013-05-31 08:00:00,72.7,72.4,30.14,SE,134,0.0,0.0,99,0.00,CLR,,0.00,WeatherDisplay:10.37,2013-05-31 12:00:00,
2013-05-31 08:15:00,74.9,73.0,30.14,East,95,0.0,5.0,94,0.00,CLR,,0.00,WeatherDisplay:10.37,2013-05-31 12:15:00,
2013-05-31 08:30:00,76.8,73.3,30.15,ESE,102,1.0,6.0,89,0.00,CLR,,0.00,WeatherDisplay:10.37,2013-05-31 12:30:00,
2013-05-31 08:45:00,77.7,73.2,30.15,ESE,112,3.0,8.0,86,0.00,CLR,,0.00,WeatherDisplay:10.37,2013-05-31 12:45:00,
2013-05-31 09:00:00,78.7,73.4,30.16,ESE,117,1.0,12.0,84,0.00,CLR,,0.00,WeatherDisplay:10.37,2013-05-31 13:00:00,
2013-05-31 09:15:00,79.9,73.9,30.15,SE,135,1.0,12.0,82,0.01,RA,,0.01,WeatherDisplay:10.37,2013-05-31 13:15:00,
2013-05-31 09:30:00,80.1,72.7,30.16,SE,133,1.0,13.0,78,0.00,CLR,,0.01,WeatherDisplay:10.37,2013-05-31 13:30:00,
2013-05-31 09:45:00,80.5,72.3,30.16,ESE,109,5.0,13.0,76,0.00,CLR,,0.01,WeatherDisplay:10.37,2013-05-31 13:45:00,
2013-05-31 10:00:00,80.8,72.1,30.16,East,97,5.0,12.0,75,0.00,CLR,,0.01,WeatherDisplay:10.37,2013-05-31 14:00:00,
2013-05-31 10:15:00,81.0,71.9,30.16,SE,143,2.0,7.0,74,0.00,CLR,,0.01,WeatherDisplay:10.37,2013-05-31 14:15:00,
2013-05-31 10:30:00,80.4,72.1,30.16,SSE,147,1.0,7.0,76,0.00,CLR,,0.01,WeatherDisplay:10.37,2013-05-31 14:30:00,
2013-05-31 10:45:00,82.1,72.6,30.16,ESE,120,6.0,11.0,73,0.00,CLR,,0.01,WeatherDisplay:10.37,2013-05-31 14:45:00,
2013-05-31 11:00:00,83.5,72.7,30.17,ESE,118,2.0,12.0,70,0.00,CLR,,0.01,WeatherDisplay:10.37,2013-05-31 15:00:00,
2013-05-31 11:15:00,83.7,72.0,30.16,ESE,122,3.0,12.0,68,0.00,CLR,,0.01,WeatherDisplay:10.37,2013-05-31 15:15:00,
2013-05-31 11:30:00,83.3,72.1,30.16,ESE,108,3.0,12.0,69,0.00,CLR,,0.01,WeatherDisplay:10.37,2013-05-31 15:30:00,
2013-05-31 11:45:00,83.5,72.3,30.17,SSE,152,1.0,10.0,69,0.00,CLR,,0.01,WeatherDisplay:10.37,2013-05-31 15:45:00,
2013-05-31 12:00:00,83.8,72.1,30.16,East,92,2.0,13.0,68,0.00,CLR,,0.01,WeatherDisplay:10.37,2013-05-31 16:00:00,
2013-05-31 12:15:00,84.2,72.5,30.16,ESE,102,3.0,14.0,68,0.00,CLR,,0.01,WeatherDisplay:10.37,2013-05-31 16:15:00,
2013-05-31 12:30:00,84.8,73.5,30.16,ESE,111,3.0,14.0,69,0.00,CLR,,0.01,WeatherDisplay:10.37,2013-05-31 16:30:00,
2013-05-31 12:45:00,84.2,72.5,30.16,East,80,2.0,15.0,68,0.00,CLR,,0.01,WeatherDisplay:10.37,2013-05-31 16:45:00,
2013-05-31 13:00:00,85.0,72.4,30.16,ESE,108,2.0,13.0,66,0.00,CLR,,0.01,WeatherDisplay:10.37,2013-05-31 17:00:00,
2013-05-31 13:15:00,83.4,72.6,30.16,ESE,123,3.0,10.0,70,0.00,CLR,,0.01,WeatherDisplay:10.37,2013-05-31 17:15:00,
2013-05-31 13:30:00,82.9,72.6,30.16,ESE,110,3.0,17.0,71,0.00,CLR,,0.01,WeatherDisplay:10.37,2013-05-31 17:30:00,
2013-05-31 13:45:00,82.8,72.8,30.15,ESE,109,6.0,17.0,72,0.00,CLR,,0.01,WeatherDisplay:10.37,2013-05-31 17:45:00,
2013-05-31 14:00:00,83.8,73.4,30.15,ESE,107,2.0,12.0,71,0.00,CLR,,0.01,WeatherDisplay:10.37,2013-05-31 18:00:00,
2013-05-31 14:15:00,83.7,73.3,30.15,East,89,2.0,10.0,71,0.00,CLR,,0.01,WeatherDisplay:10.37,2013-05-31 18:15:00,
2013-05-31 14:30:00,83.7,72.4,30.14,ESE,111,3.0,10.0,69,0.00,CLR,,0.01,WeatherDisplay:10.37,2013-05-31 18:30:00,
2013-05-31 14:45:00,83.0,72.6,30.14,East,83,1.0,15.0,71,0.00,CLR,,0.01,WeatherDisplay:10.37,2013-05-31 18:45:00,
2013-05-31 15:00:00,83.3,72.5,30.13,ENE,78,3.0,10.0,70,0.00,CLR,,0.01,WeatherDisplay:10.37,2013-05-31 19:00:00,
2013-05-31 15:15:00,84.0,72.7,30.12,SE,140,3.0,12.0,69,0.00,CLR,,0.01,WeatherDisplay:10.37,2013-05-31 19:15:00,
2013-05-31 15:30:00,83.4,71.8,30.13,East,101,3.0,12.0,68,0.00,CLR,,0.01,WeatherDisplay:10.37,2013-05-31 19:30:00,
2013-05-31 15:45:00,83.5,72.6,30.12,ESE,113,5.0,14.0,70,0.00,CLR,,0.01,WeatherDisplay:10.37,2013-05-31 19:45:00,
2013-05-31 16:00:00,83.4,72.1,30.12,SE,142,5.0,12.0,69,0.00,CLR,,0.01,WeatherDisplay:10.37,2013-05-31 20:00:00,
2013-05-31 16:15:00,82.6,72.7,30.12,SE,126,2.0,13.0,72,0.00,CLR,,0.01,WeatherDisplay:10.37,2013-05-31 20:15:00,
2013-05-31 16:30:00,83.2,72.0,30.11,ESE,113,5.0,12.0,69,0.00,CLR,,0.01,WeatherDisplay:10.37,2013-05-31 20:30:00,
2013-05-31 16:45:00,83.5,71.4,30.11,ESE,119,5.0,12.0,67,0.00,CLR,,0.01,WeatherDisplay:10.37,2013-05-31 20:45:00,
2013-05-31 17:00:00,83.2,71.5,30.11,ESE,123,3.0,9.0,68,0.00,CLR,,0.01,WeatherDisplay:10.37,2013-05-31 21:00:00,
2013-05-31 17:15:00,83.0,70.9,30.10,East,101,2.0,12.0,67,0.00,CLR,,0.01,WeatherDisplay:10.37,2013-05-31 21:15:00,
2013-05-31 17:30:00,82.9,70.8,30.10,ESE,119,3.0,12.0,67,0.00,CLR,,0.01,WeatherDisplay:10.37,2013-05-31 21:30:00,
2013-05-31 17:45:00,83.6,70.6,30.10,ESE,103,5.0,10.0,65,0.00,CLR,,0.01,WeatherDisplay:10.37,2013-05-31 21:45:00,
2013-05-31 18:00:00,83.9,71.3,30.10,ESE,106,1.0,12.0,66,0.00,CLR,,0.01,WeatherDisplay:10.37,2013-05-31 22:00:00,
2013-05-31 18:15:00,83.5,70.0,30.10,ESE,114,2.0,12.0,64,0.00,CLR,,0.01,WeatherDisplay:10.37,2013-05-31 22:15:00,
2013-05-31 18:30:00,82.9,69.9,30.10,East,88,3.0,12.0,65,0.00,CLR,,0.01,WeatherDisplay:10.37,2013-05-31 22:30:00,
2013-05-31 18:45:00,82.5,70.0,30.10,ESE,109,3.0,12.0,66,0.00,CLR,,0.01,WeatherDisplay:10.37,2013-05-31 22:45:00,
2013-05-31 19:00:00,82.1,70.5,30.11,SE,140,2.0,10.0,68,0.00,CLR,,0.01,WeatherDisplay:10.37,2013-05-31 23:00:00,
2013-05-31 19:15:00,81.3,70.1,30.11,East,100,1.0,12.0,69,0.00,CLR,,0.01,WeatherDisplay:10.37,2013-05-31 23:15:00,
2013-05-31 19:30:00,80.7,70.0,30.11,ESE,104,3.0,12.0,70,0.00,CLR,,0.01,WeatherDisplay:10.37,2013-05-31 23:30:00,
2013-05-31 19:45:00,80.1,70.3,30.11,ESE,117,1.0,9.0,72,0.00,CLR,,0.01,WeatherDisplay:10.37,2013-05-31 23:45:00,
2013-05-31 20:00:00,79.4,70.4,30.12,ESE,115,1.0,9.0,74,0.00,CLR,,0.01,WeatherDisplay:10.37,2013-06-01 00:00:00,
2013-05-31 20:15:00,78.6,70.4,30.12,SE,145,1.0,5.0,76,0.00,CLR,,0.01,WeatherDisplay:10.37,2013-06-01 00:15:00,
2013-05-31 20:30:00,78.0,70.6,30.12,East,98,0.0,5.0,78,0.00,CLR,,0.01,WeatherDisplay:10.37,2013-06-01 00:30:00,
2013-05-31 20:45:00,77.3,70.6,30.12,SE,125,0.0,4.0,80,0.00,CLR,,0.01,WeatherDisplay:10.37,2013-06-01 00:45:00,
2013-05-31 21:00:00,76.8,70.9,30.12,SE,140,1.0,9.0,82,0.00,CLR,,0.01,WeatherDisplay:10.37,2013-06-01 01:00:00,
2013-05-31 21:15:00,76.3,70.8,30.13,ESE,107,0.0,5.0,83,0.00,CLR,,0.01,WeatherDisplay:10.37,2013-06-01 01:15:00,
2013-05-31 21:30:00,75.9,70.7,30.13,ENE,77,0.0,4.0,84,0.00,CLR,,0.01,WeatherDisplay:10.37,2013-06-01 01:30:00,
2013-05-31 21:45:00,75.5,71.0,30.14,East,89,0.0,3.0,86,0.00,CLR,,0.01,WeatherDisplay:10.37,2013-06-01 01:45:00,
2013-05-31 22:00:00,75.3,71.2,30.14,SE,138,0.0,3.0,87,0.00,CLR,,0.01,WeatherDisplay:10.37,2013-06-01 02:00:00,
2013-05-31 22:15:00,75.0,71.6,30.14,SE,130,1.0,4.0,89,0.00,CLR,,0.01,WeatherDisplay:10.37,2013-06-01 02:15:00,
2013-05-31 22:30:00,74.9,71.4,30.14,East,95,0.0,3.0,89,0.00,CLR,,0.01,WeatherDisplay:10.37,2013-06-01 02:30:00,
2013-05-31 22:45:00,74.7,71.2,30.14,East,95,0.0,1.0,89,0.00,CLR,,0.01,WeatherDisplay:10.37,2013-06-01 02:45:00,
2013-05-31 23:00:00,74.4,71.2,30.14,ESE,109,1.0,3.0,90,0.00,CLR,,0.01,WeatherDisplay:10.37,2013-06-01 03:00:00,
2013-05-31 23:15:00,73.9,71.1,30.14,SSE,152,0.0,0.0,91,0.00,CLR,,0.01,WeatherDisplay:10.37,2013-06-01 03:15:00,
2013-05-31 23:30:00,73.4,70.9,30.14,SSE,152,0.0,0.0,92,0.00,CLR,,0.01,WeatherDisplay:10.37,2013-06-01 03:30:00,
2013-05-31 23:45:00,73.0,70.9,30.14,SSE,152,0.0,0.0,93,0.00,CLR,,0.01,WeatherDisplay:10.37,2013-06-01 03:45:00,